createdAt,value
2023-04-16T00:00:04.057Z,89
2023-04-16T00:01:00.852Z,89
2023-04-16T00:02:01.125Z,89
2023-04-16T00:03:01.100Z,89
2023-04-16T00:04:01.272Z,89
2023-04-16T00:05:03.544Z,89
2023-04-16T00:06:01.004Z,89
2023-04-16T00:07:00.894Z,89
2023-04-16T00:08:00.977Z,89
2023-04-16T00:09:00.898Z,90
2023-04-16T00:10:04.034Z,90
2023-04-16T00:11:00.936Z,90
2023-04-16T00:12:01.007Z,90
2023-04-16T00:13:00.942Z,90
2023-04-16T00:14:01.034Z,90
2023-04-16T00:15:03.448Z,90
2023-04-16T00:16:01.067Z,90
2023-04-16T00:17:00.985Z,90
2023-04-16T00:18:01.114Z,90
2023-04-16T00:19:00.972Z,90
2023-04-16T00:20:04.395Z,90
2023-04-16T00:21:01.013Z,90
2023-04-16T00:22:01.059Z,90
2023-04-16T00:23:01.006Z,90
2023-04-16T00:24:01.122Z,90
2023-04-16T00:25:03.642Z,90
2023-04-16T00:26:01.147Z,90
2023-04-16T00:27:01.033Z,90
2023-04-16T00:28:01.089Z,90
2023-04-16T00:29:01.023Z,90
2023-04-16T00:30:04.200Z,90
2023-04-16T00:31:01.105Z,90
2023-04-16T00:32:01.124Z,90
2023-04-16T00:33:01.125Z,90
2023-04-16T00:34:01.159Z,90
2023-04-16T00:35:03.759Z,90
2023-04-16T00:36:01.153Z,90
2023-04-16T00:37:01.096Z,90
2023-04-16T00:38:01.166Z,90
2023-04-16T00:39:01.102Z,90
2023-04-16T00:40:04.214Z,90
2023-04-16T00:41:01.114Z,90
2023-04-16T00:42:01.184Z,90
2023-04-16T00:43:01.106Z,90
2023-04-16T00:44:01.320Z,90
2023-04-16T00:45:04.396Z,90
2023-04-16T00:46:01.214Z,90
2023-04-16T00:47:01.140Z,90
2023-04-16T00:48:01.256Z,90
2023-04-16T00:49:01.137Z,90
2023-04-16T00:50:04.575Z,90
2023-04-16T00:51:01.183Z,90
2023-04-16T00:52:00.216Z,90
2023-04-16T00:53:00.161Z,90
2023-04-16T00:54:00.237Z,90
2023-04-16T00:55:02.818Z,90
2023-04-16T00:56:00.266Z,90
2023-04-16T00:57:00.222Z,90
2023-04-16T00:58:00.238Z,90
2023-04-16T00:59:00.179Z,90
2023-04-16T01:00:03.480Z,90
2023-04-16T01:01:00.186Z,90
2023-04-16T01:02:00.412Z,90
2023-04-16T01:03:01.475Z,90
2023-04-16T01:04:00.394Z,90
2023-04-16T01:05:02.839Z,90
2023-04-16T01:06:00.336Z,90
2023-04-16T01:07:00.218Z,90
2023-04-16T01:08:00.314Z,90
2023-04-16T01:09:00.241Z,90
2023-04-16T01:10:03.170Z,90
2023-04-16T01:11:00.236Z,90
2023-04-16T01:12:00.315Z,90
2023-04-16T01:13:00.250Z,90
2023-04-16T01:14:00.360Z,90
2023-04-16T01:15:02.940Z,90
2023-04-16T01:16:00.386Z,90
2023-04-16T01:17:00.277Z,90
2023-04-16T01:18:00.443Z,90
2023-04-16T01:19:00.266Z,90
2023-04-16T01:20:03.358Z,90
2023-04-16T01:21:00.307Z,90
2023-04-16T01:22:00.400Z,90
2023-04-16T01:23:00.309Z,90
2023-04-16T01:24:00.391Z,90
2023-04-16T01:25:05.208Z,91
2023-04-16T01:26:00.396Z,91
2023-04-16T01:27:00.357Z,91
2023-04-16T01:28:00.423Z,91
2023-04-16T01:29:00.348Z,91
2023-04-16T01:30:03.341Z,91
2023-04-16T01:31:00.422Z,91
2023-04-16T01:32:00.447Z,91
2023-04-16T01:33:00.422Z,91
2023-04-16T01:34:00.454Z,91
2023-04-16T01:35:03.285Z,91
2023-04-16T01:36:00.481Z,91
2023-04-16T01:37:00.432Z,91
2023-04-16T01:38:00.447Z,91
2023-04-16T01:39:00.381Z,91
2023-04-16T01:40:04.169Z,91
2023-04-16T01:41:00.383Z,91
2023-04-16T01:42:00.496Z,91
2023-04-16T01:43:00.413Z,91
2023-04-16T01:44:00.485Z,91
2023-04-16T01:45:02.908Z,91
2023-04-16T01:46:00.500Z,91
2023-04-16T01:47:00.534Z,91
2023-04-16T01:48:00.560Z,91
2023-04-16T01:49:00.475Z,91
2023-04-16T01:50:03.661Z,91
2023-04-16T01:51:00.473Z,91
2023-04-16T01:52:00.565Z,91
2023-04-16T01:53:00.448Z,91
2023-04-16T01:54:00.542Z,91
2023-04-16T01:55:03.252Z,91
2023-04-16T01:56:00.555Z,91
2023-04-16T01:57:00.460Z,91
2023-04-16T01:58:00.533Z,91
2023-04-16T01:59:00.457Z,91
2023-04-16T02:00:03.806Z,91
2023-04-16T02:01:00.731Z,91
2023-04-16T02:02:00.684Z,91
2023-04-16T02:03:00.783Z,91
2023-04-16T02:04:00.774Z,91
2023-04-16T02:05:03.142Z,91
2023-04-16T02:06:00.594Z,91
2023-04-16T02:07:00.553Z,91
2023-04-16T02:08:00.595Z,91
2023-04-16T02:09:00.541Z,91
2023-04-16T02:10:03.648Z,91
2023-04-16T02:11:00.535Z,91
2023-04-16T02:12:00.647Z,91
2023-04-16T02:13:00.572Z,91
2023-04-16T02:14:00.604Z,91
2023-04-16T02:15:03.292Z,91
2023-04-16T02:16:00.698Z,91
2023-04-16T02:17:00.562Z,91
2023-04-16T02:18:00.681Z,91
2023-04-16T02:19:00.610Z,91
2023-04-16T02:20:04.887Z,91
2023-04-16T02:21:00.599Z,91
2023-04-16T02:22:07.867Z,91
2023-04-16T02:23:00.588Z,91
2023-04-16T02:24:00.699Z,91
2023-04-16T02:25:03.480Z,91
2023-04-16T02:26:00.697Z,91
2023-04-16T02:27:00.625Z,91
2023-04-16T02:28:00.701Z,91
2023-04-16T02:29:00.627Z,91
2023-04-16T02:30:05.073Z,91
2023-04-16T02:31:00.653Z,91
2023-04-16T02:32:00.796Z,91
2023-04-16T02:33:00.770Z,91
2023-04-16T02:34:00.753Z,91
2023-04-16T02:35:03.779Z,91
2023-04-16T02:36:00.794Z,91
2023-04-16T02:37:00.672Z,91
2023-04-16T02:38:00.765Z,91
2023-04-16T02:39:00.719Z,91
2023-04-16T02:40:03.805Z,91
2023-04-16T02:41:00.721Z,91
2023-04-16T02:42:00.866Z,91
2023-04-16T02:43:00.729Z,91
2023-04-16T02:44:00.818Z,91
2023-04-16T02:45:03.233Z,91
2023-04-16T02:46:00.921Z,91
2023-04-16T02:47:00.762Z,91
2023-04-16T02:48:00.960Z,91
2023-04-16T02:49:00.776Z,91
2023-04-16T02:50:03.600Z,91
2023-04-16T02:51:00.821Z,91
2023-04-16T02:52:00.898Z,91
2023-04-16T02:53:00.806Z,91
2023-04-16T02:54:01.092Z,91
2023-04-16T02:55:03.437Z,91
2023-04-16T02:56:00.893Z,91
2023-04-16T02:57:00.837Z,91
2023-04-16T02:58:00.929Z,91
2023-04-16T02:59:00.838Z,91
2023-04-16T03:00:04.112Z,91
2023-04-16T03:01:00.962Z,91
2023-04-16T03:02:00.986Z,91
2023-04-16T03:03:00.912Z,91
2023-04-16T03:04:08.472Z,91
2023-04-16T03:05:03.482Z,91
2023-04-16T03:06:01.009Z,91
2023-04-16T03:07:00.916Z,91
2023-04-16T03:08:00.969Z,91
2023-04-16T03:09:00.931Z,91
2023-04-16T03:10:05.105Z,91
2023-04-16T03:11:00.932Z,91
2023-04-16T03:12:01.053Z,91
2023-04-16T03:13:00.946Z,91
2023-04-16T03:14:01.054Z,91
2023-04-16T03:15:03.599Z,91
2023-04-16T03:16:01.120Z,91
2023-04-16T03:17:00.964Z,91
2023-04-16T03:18:01.141Z,91
2023-04-16T03:19:00.973Z,91
2023-04-16T03:20:04.275Z,91
2023-04-16T03:21:01.036Z,91
2023-04-16T03:22:01.094Z,91
2023-04-16T03:23:01.004Z,91
2023-04-16T03:24:01.099Z,91
2023-04-16T03:25:04.253Z,91
2023-04-16T03:26:01.120Z,91
2023-04-16T03:27:01.040Z,91
2023-04-16T03:28:01.150Z,91
2023-04-16T03:29:01.037Z,91
2023-04-16T03:30:05.371Z,91
2023-04-16T03:31:01.108Z,91
2023-04-16T03:32:01.147Z,91
2023-04-16T03:33:01.156Z,91
2023-04-16T03:34:01.189Z,91
2023-04-16T03:35:03.650Z,91
2023-04-16T03:36:01.188Z,91
2023-04-16T03:37:01.100Z,91
2023-04-16T03:38:01.169Z,91
2023-04-16T03:39:01.115Z,91
2023-04-16T03:40:04.146Z,91
2023-04-16T03:41:01.132Z,91
2023-04-16T03:42:01.261Z,91
2023-04-16T03:43:01.135Z,91
2023-04-16T03:44:04.776Z,91
2023-04-16T03:45:03.709Z,91
2023-04-16T03:46:01.281Z,91
2023-04-16T03:47:00.188Z,91
2023-04-16T03:48:00.257Z,91
2023-04-16T03:49:00.171Z,91
2023-04-16T03:50:04.435Z,91
2023-04-16T03:51:00.188Z,91
2023-04-16T03:52:00.289Z,91
2023-04-16T03:53:00.195Z,91
2023-04-16T03:54:00.288Z,91
2023-04-16T03:55:02.622Z,91
2023-04-16T03:56:00.276Z,91
2023-04-16T03:57:00.254Z,91
2023-04-16T03:58:00.344Z,91
2023-04-16T03:59:00.219Z,91
2023-04-16T04:00:03.857Z,92
2023-04-16T04:01:00.279Z,92
2023-04-16T04:02:00.495Z,92
2023-04-16T04:03:00.426Z,92
2023-04-16T04:04:00.531Z,92
2023-04-16T04:05:03.072Z,92
2023-04-16T04:06:00.383Z,92
2023-04-16T04:07:00.337Z,92
2023-04-16T04:08:00.370Z,92
2023-04-16T04:09:00.316Z,92
2023-04-16T04:10:03.442Z,92
2023-04-16T04:11:00.311Z,92
2023-04-16T04:12:00.403Z,92
2023-04-16T04:13:00.321Z,92
2023-04-16T04:14:00.400Z,92
2023-04-16T04:15:04.450Z,92
2023-04-16T04:16:00.438Z,92
2023-04-16T04:17:00.341Z,92
2023-04-16T04:18:00.545Z,92
2023-04-16T04:19:00.346Z,92
2023-04-16T04:20:03.888Z,92
2023-04-16T04:21:00.378Z,92
2023-04-16T04:22:00.449Z,92
2023-04-16T04:23:00.377Z,92
2023-04-16T04:24:00.469Z,92
2023-04-16T04:25:03.499Z,92
2023-04-16T04:26:00.517Z,92
2023-04-16T04:27:00.440Z,92
2023-04-16T04:28:00.492Z,92
2023-04-16T04:29:00.413Z,92
2023-04-16T04:30:03.514Z,92
2023-04-16T04:31:00.453Z,92
2023-04-16T04:32:00.694Z,92
2023-04-16T04:33:00.496Z,92
2023-04-16T04:34:00.528Z,92
2023-04-16T04:35:05.157Z,92
2023-04-16T04:36:00.525Z,92
2023-04-16T04:37:00.444Z,92
2023-04-16T04:38:01.161Z,92
2023-04-16T04:39:00.514Z,92
2023-04-16T04:40:03.238Z,92
2023-04-16T04:41:00.459Z,92
2023-04-16T04:42:00.558Z,92
2023-04-16T04:43:00.472Z,92
2023-04-16T04:44:00.560Z,92
2023-04-16T04:45:03.311Z,92
2023-04-16T04:46:00.604Z,92
2023-04-16T04:47:00.508Z,92
2023-04-16T04:48:00.635Z,92
2023-04-16T04:49:00.533Z,92
2023-04-16T04:50:03.976Z,92
2023-04-16T04:51:01.251Z,92
2023-04-16T04:52:00.600Z,92
2023-04-16T04:53:00.521Z,92
2023-04-16T04:54:00.614Z,92
2023-04-16T04:55:03.812Z,92
2023-04-16T04:56:11.151Z,92
2023-04-16T04:57:00.576Z,92
2023-04-16T04:58:00.601Z,92
2023-04-16T04:59:00.547Z,92
2023-04-16T05:00:03.791Z,92
2023-04-16T05:01:00.609Z,92
2023-04-16T05:02:00.692Z,92
2023-04-16T05:03:00.836Z,92
2023-04-16T05:04:00.744Z,92
2023-04-16T05:05:03.199Z,92
2023-04-16T05:06:00.741Z,92
2023-04-16T05:07:00.606Z,92
2023-04-16T05:08:00.692Z,92
2023-04-16T05:09:00.669Z,92
2023-04-16T05:10:03.941Z,92
2023-04-16T05:11:00.632Z,92
2023-04-16T05:12:00.738Z,92
2023-04-16T05:13:00.649Z,92
2023-04-16T05:14:00.728Z,92
2023-04-16T05:15:03.391Z,92
2023-04-16T05:16:00.750Z,92
2023-04-16T05:17:00.779Z,92
2023-04-16T05:18:00.809Z,92
2023-04-16T05:19:00.672Z,92
2023-04-16T05:20:05.515Z,92
2023-04-16T05:21:00.714Z,92
2023-04-16T05:22:01.916Z,92
2023-04-16T05:23:00.706Z,92
2023-04-16T05:24:00.783Z,92
2023-04-16T05:25:03.137Z,92
2023-04-16T05:26:00.811Z,92
2023-04-16T05:27:00.733Z,92
2023-04-16T05:28:00.807Z,92
2023-04-16T05:29:00.754Z,92
2023-04-16T05:30:03.853Z,92
2023-04-16T05:31:00.848Z,92
2023-04-16T05:32:00.848Z,92
2023-04-16T05:33:00.830Z,92
2023-04-16T05:34:00.845Z,92
2023-04-16T05:35:04.330Z,92
2023-04-16T05:36:00.877Z,92
2023-04-16T05:37:00.771Z,92
2023-04-16T05:38:00.904Z,92
2023-04-16T05:39:00.794Z,92
2023-04-16T05:40:03.825Z,92
2023-04-16T05:41:00.799Z,92
2023-04-16T05:42:00.890Z,92
2023-04-16T05:43:00.805Z,92
2023-04-16T05:44:00.902Z,92
2023-04-16T05:45:03.828Z,92
2023-04-16T05:46:00.902Z,92
2023-04-16T05:47:00.827Z,92
2023-04-16T05:48:00.987Z,92
2023-04-16T05:49:00.832Z,92
2023-04-16T05:50:03.866Z,92
2023-04-16T05:51:00.866Z,92
2023-04-16T05:52:00.930Z,92
2023-04-16T05:53:00.860Z,92
2023-04-16T05:54:00.992Z,92
2023-04-16T05:55:03.605Z,92
2023-04-16T05:56:00.961Z,92
2023-04-16T05:57:00.900Z,92
2023-04-16T05:58:00.964Z,92
2023-04-16T05:59:00.887Z,92
2023-04-16T06:00:07.625Z,92
2023-04-16T06:01:00.896Z,92
2023-04-16T06:02:01.034Z,92
2023-04-16T06:03:01.118Z,92
2023-04-16T06:04:01.058Z,92
2023-04-16T06:05:04.043Z,92
2023-04-16T06:06:01.074Z,92
2023-04-16T06:07:00.923Z,92
2023-04-16T06:08:01.041Z,92
2023-04-16T06:09:00.948Z,92
2023-04-16T06:10:04.218Z,92
2023-04-16T06:11:00.966Z,92
2023-04-16T06:12:01.078Z,92
2023-04-16T06:13:00.967Z,92
2023-04-16T06:14:01.069Z,92
2023-04-16T06:15:07.303Z,92
2023-04-16T06:16:01.111Z,92
2023-04-16T06:17:00.987Z,92
2023-04-16T06:18:01.206Z,92
2023-04-16T06:19:01.007Z,92
2023-04-16T06:20:04.861Z,92
2023-04-16T06:21:01.018Z,92
2023-04-16T06:22:01.084Z,92
2023-04-16T06:23:01.026Z,92
2023-04-16T06:24:02.129Z,92
2023-04-16T06:25:03.851Z,92
2023-04-16T06:26:01.171Z,92
2023-04-16T06:27:01.045Z,92
2023-04-16T06:28:01.115Z,92
2023-04-16T06:29:01.040Z,92
2023-04-16T06:30:04.514Z,92
2023-04-16T06:31:01.143Z,92
2023-04-16T06:32:00.148Z,92
2023-04-16T06:33:00.178Z,92
2023-04-16T06:34:00.150Z,92
2023-04-16T06:35:02.813Z,92
2023-04-16T06:36:00.172Z,92
2023-04-16T06:37:00.131Z,92
2023-04-16T06:38:00.201Z,92
2023-04-16T06:39:00.128Z,92
2023-04-16T06:40:03.104Z,92
2023-04-16T06:41:00.152Z,92
2023-04-16T06:42:00.253Z,92
2023-04-16T06:43:00.152Z,92
2023-04-16T06:44:00.391Z,92
2023-04-16T06:45:02.691Z,92
2023-04-16T06:46:00.225Z,92
2023-04-16T06:47:00.215Z,92
2023-04-16T06:48:00.340Z,92
2023-04-16T06:49:00.185Z,92
2023-04-16T06:50:03.102Z,92
2023-04-16T06:51:00.191Z,92
2023-04-16T06:52:00.244Z,92
2023-04-16T06:53:00.198Z,92
2023-04-16T06:54:00.301Z,92
2023-04-16T06:55:02.752Z,92
2023-04-16T06:56:00.299Z,92
2023-04-16T06:57:00.247Z,92
2023-04-16T06:58:00.303Z,92
2023-04-16T06:59:00.224Z,92
2023-04-16T07:00:03.672Z,92
2023-04-16T07:01:00.303Z,92
2023-04-16T07:02:00.471Z,92
2023-04-16T07:03:00.519Z,92
2023-04-16T07:04:00.544Z,92
2023-04-16T07:05:02.836Z,92
2023-04-16T07:06:01.421Z,92
2023-04-16T07:07:00.277Z,92
2023-04-16T07:08:00.404Z,92
2023-04-16T07:09:00.303Z,92
2023-04-16T07:10:04.163Z,92
2023-04-16T07:11:00.371Z,92
2023-04-16T07:12:00.469Z,92
2023-04-16T07:13:00.331Z,92
2023-04-16T07:14:00.593Z,92
2023-04-16T07:15:03.058Z,92
2023-04-16T07:16:00.501Z,92
2023-04-16T07:17:00.366Z,92
2023-04-16T07:18:00.535Z,92
2023-04-16T07:19:00.374Z,92
2023-04-16T07:20:04.760Z,92
2023-04-16T07:21:00.407Z,92
2023-04-16T07:22:00.490Z,92
2023-04-16T07:23:00.384Z,92
2023-04-16T07:24:00.491Z,92
2023-04-16T07:25:03.170Z,92
2023-04-16T07:26:00.505Z,92
2023-04-16T07:27:00.450Z,92
2023-04-16T07:28:00.570Z,92
2023-04-16T07:29:00.425Z,92
2023-04-16T07:30:03.388Z,92
2023-04-16T07:31:00.440Z,92
2023-04-16T07:32:00.656Z,92
2023-04-16T07:33:00.491Z,92
2023-04-16T07:34:07.740Z,92
2023-04-16T07:35:03.177Z,92
2023-04-16T07:36:00.553Z,92
2023-04-16T07:37:00.477Z,92
2023-04-16T07:38:00.564Z,92
2023-04-16T07:39:00.494Z,92
2023-04-16T07:40:03.544Z,92
2023-04-16T07:41:00.493Z,92
2023-04-16T07:42:00.586Z,92
2023-04-16T07:43:00.521Z,92
2023-04-16T07:44:00.601Z,92
2023-04-16T07:45:03.076Z,92
2023-04-16T07:46:00.671Z,92
2023-04-16T07:47:01.038Z,92
2023-04-16T07:48:00.673Z,92
2023-04-16T07:49:00.529Z,92
2023-04-16T07:50:03.536Z,92
2023-04-16T07:51:00.583Z,92
2023-04-16T07:52:00.630Z,92
2023-04-16T07:53:00.568Z,92
2023-04-16T07:54:00.649Z,92
2023-04-16T07:55:03.141Z,92
2023-04-16T07:56:00.676Z,92
2023-04-16T07:57:00.628Z,92
2023-04-16T07:58:07.856Z,92
2023-04-16T07:59:07.873Z,92
2023-04-16T08:00:03.668Z,92
2023-04-16T08:01:00.607Z,92
2023-04-16T08:02:00.832Z,92
2023-04-16T08:03:00.937Z,92
2023-04-16T08:04:00.804Z,92
2023-04-16T08:05:05.507Z,92
2023-04-16T08:06:00.740Z,92
2023-04-16T08:07:00.670Z,92
2023-04-16T08:08:00.747Z,92
2023-04-16T08:09:00.689Z,92
2023-04-16T08:10:03.509Z,92
2023-04-16T08:11:00.686Z,92
2023-04-16T08:12:00.785Z,92
2023-04-16T08:13:00.710Z,92
2023-04-16T08:14:00.792Z,92
2023-04-16T08:15:04.865Z,92
2023-04-16T08:16:00.827Z,92
2023-04-16T08:17:00.712Z,92
2023-04-16T08:18:01.058Z,92
2023-04-16T08:19:00.728Z,92
2023-04-16T08:20:03.891Z,92
2023-04-16T08:21:00.752Z,92
2023-04-16T08:22:00.819Z,91
2023-04-16T08:23:00.740Z,91
2023-04-16T08:24:00.860Z,91
2023-04-16T08:25:03.190Z,91
2023-04-16T08:26:00.862Z,91
2023-04-16T08:27:11.453Z,91
2023-04-16T08:28:00.834Z,91
2023-04-16T08:29:00.786Z,91
2023-04-16T08:30:04.065Z,91
2023-04-16T08:31:00.835Z,91
2023-04-16T08:32:00.893Z,91
2023-04-16T08:33:00.836Z,91
2023-04-16T08:34:08.075Z,91
2023-04-16T08:35:03.416Z,91
2023-04-16T08:36:00.895Z,91
2023-04-16T08:37:00.829Z,91
2023-04-16T08:38:02.383Z,91
2023-04-16T08:39:00.874Z,91
2023-04-16T08:40:04.946Z,91
2023-04-16T08:41:00.865Z,91
2023-04-16T08:42:00.929Z,91
2023-04-16T08:43:00.858Z,91
2023-04-16T08:44:00.954Z,91
2023-04-16T08:45:03.448Z,91
2023-04-16T08:46:00.942Z,91
2023-04-16T08:47:00.989Z,91
2023-04-16T08:48:01.007Z,91
2023-04-16T08:49:00.903Z,91
2023-04-16T08:50:04.098Z,90
2023-04-16T08:51:00.911Z,90
2023-04-16T08:52:00.990Z,90
2023-04-16T08:53:00.934Z,90
2023-04-16T08:54:00.991Z,90
2023-04-16T08:55:03.670Z,90
2023-04-16T08:56:01.016Z,90
2023-04-16T08:57:00.946Z,90
2023-04-16T08:58:01.010Z,90
2023-04-16T08:59:00.970Z,90
2023-04-16T09:00:05.451Z,90
2023-04-16T09:01:00.965Z,89
2023-04-16T09:02:01.186Z,89
2023-04-16T09:03:01.115Z,89
2023-04-16T09:04:05.481Z,89
2023-04-16T09:05:03.629Z,89
2023-04-16T09:06:01.108Z,89
2023-04-16T09:07:01.003Z,89
2023-04-16T09:08:01.162Z,88
2023-04-16T09:09:01.025Z,88
2023-04-16T09:10:04.542Z,88
2023-04-16T09:11:01.042Z,88
2023-04-16T09:12:01.141Z,88
2023-04-16T09:13:01.059Z,88
2023-04-16T09:14:01.142Z,88
2023-04-16T09:15:03.667Z,88
2023-04-16T09:16:01.297Z,87
2023-04-16T09:17:01.089Z,87
2023-04-16T09:18:01.193Z,87
2023-04-16T09:19:01.091Z,87
2023-04-16T09:20:04.213Z,87
2023-04-16T09:21:01.102Z,87
2023-04-16T09:22:01.183Z,87
2023-04-16T09:23:01.099Z,87
2023-04-16T09:24:01.204Z,86
2023-04-16T09:25:03.704Z,86
2023-04-16T09:26:01.203Z,86
2023-04-16T09:27:01.133Z,86
2023-04-16T09:28:01.185Z,86
2023-04-16T09:29:01.145Z,86
2023-04-16T09:30:04.440Z,86
2023-04-16T09:31:01.152Z,86
2023-04-16T09:32:01.330Z,86
2023-04-16T09:33:01.198Z,86
2023-04-16T09:34:01.230Z,85
2023-04-16T09:35:03.761Z,85
2023-04-16T09:36:01.232Z,84
2023-04-16T09:37:01.171Z,84
2023-04-16T09:38:01.295Z,84
2023-04-16T09:39:01.212Z,84
2023-04-16T09:40:04.310Z,84
2023-04-16T09:41:00.190Z,84
2023-04-16T09:42:00.289Z,84
2023-04-16T09:43:00.195Z,84
2023-04-16T09:44:00.314Z,84
2023-04-16T09:45:05.522Z,84
2023-04-16T09:46:00.314Z,84
2023-04-16T09:47:00.234Z,84
2023-04-16T09:48:00.345Z,84
2023-04-16T09:49:00.252Z,84
2023-04-16T09:50:03.741Z,84
2023-04-16T09:51:00.321Z,84
2023-04-16T09:52:00.361Z,84
2023-04-16T09:53:00.289Z,84
2023-04-16T09:54:00.399Z,83
2023-04-16T09:55:03.524Z,83
2023-04-16T09:56:00.404Z,83
2023-04-16T09:57:00.362Z,83
2023-04-16T09:58:00.417Z,83
2023-04-16T09:59:00.328Z,84
2023-04-16T10:00:03.435Z,84
2023-04-16T10:01:00.416Z,83
2023-04-16T10:02:14.464Z,83
2023-04-16T10:03:00.552Z,83
2023-04-16T10:04:00.550Z,83
2023-04-16T10:05:03.431Z,83
2023-04-16T10:06:00.490Z,83
2023-04-16T10:07:00.409Z,83
2023-04-16T10:08:00.525Z,83
2023-04-16T10:09:00.425Z,83
2023-04-16T10:10:03.168Z,83
2023-04-16T10:11:00.423Z,83
2023-04-16T10:12:00.493Z,83
2023-04-16T10:13:00.416Z,83
2023-04-16T10:14:00.530Z,83
2023-04-16T10:15:03.218Z,83
2023-04-16T10:16:00.520Z,82
2023-04-16T10:17:00.484Z,82
2023-04-16T10:18:00.615Z,82
2023-04-16T10:19:00.468Z,82
2023-04-16T10:20:03.697Z,82
2023-04-16T10:21:00.470Z,82
2023-04-16T10:22:00.573Z,82
2023-04-16T10:23:00.512Z,82
2023-04-16T10:24:00.566Z,82
2023-04-16T10:25:03.205Z,82
2023-04-16T10:26:00.757Z,82
2023-04-16T10:27:00.490Z,82
2023-04-16T10:28:00.556Z,82
2023-04-16T10:29:00.489Z,82
2023-04-16T10:30:03.901Z,82
2023-04-16T10:31:00.548Z,82
2023-04-16T10:32:00.600Z,82
2023-04-16T10:33:00.890Z,82
2023-04-16T10:34:03.671Z,82
2023-04-16T10:35:03.015Z,82
2023-04-16T10:36:07.421Z,81
2023-04-16T10:37:00.522Z,81
2023-04-16T10:38:00.654Z,81
2023-04-16T10:39:00.575Z,81
2023-04-16T10:40:05.007Z,81
2023-04-16T10:41:00.555Z,81
2023-04-16T10:42:00.680Z,81
2023-04-16T10:43:00.575Z,81
2023-04-16T10:44:00.657Z,81
2023-04-16T10:45:03.100Z,81
2023-04-16T10:46:00.668Z,81
2023-04-16T10:47:00.600Z,81
2023-04-16T10:48:00.686Z,81
2023-04-16T10:49:00.606Z,81
2023-04-16T10:50:04.929Z,81
2023-04-16T10:51:00.613Z,81
2023-04-16T10:52:00.731Z,81
2023-04-16T10:53:00.634Z,81
2023-04-16T10:54:00.746Z,81
2023-04-16T10:55:03.204Z,81
2023-04-16T10:56:01.779Z,81
2023-04-16T10:57:01.710Z,81
2023-04-16T10:58:03.856Z,81
2023-04-16T10:59:00.651Z,81
2023-04-16T11:00:05.050Z,81
2023-04-16T11:01:00.675Z,81
2023-04-16T11:02:00.882Z,80
2023-04-16T11:03:00.789Z,80
2023-04-16T11:04:00.983Z,80
2023-04-16T11:05:03.448Z,80
2023-04-16T11:06:01.044Z,80
2023-04-16T11:07:00.699Z,80
2023-04-16T11:08:00.812Z,80
2023-04-16T11:09:00.740Z,80
2023-04-16T11:10:05.178Z,80
2023-04-16T11:11:00.714Z,80
2023-04-16T11:12:00.802Z,79
2023-04-16T11:13:00.841Z,79
2023-04-16T11:14:04.106Z,79
2023-04-16T11:15:03.431Z,79
2023-04-16T11:16:03.918Z,79
2023-04-16T11:17:00.769Z,79
2023-04-16T11:20:19.231Z,79
2023-04-16T11:21:00.765Z,79
2023-04-16T11:22:00.817Z,78
2023-04-16T11:23:00.777Z,78
2023-04-16T11:24:00.863Z,78
2023-04-16T11:25:03.337Z,77
2023-04-16T11:26:00.893Z,77
2023-04-16T11:27:00.798Z,77
2023-04-16T11:28:00.867Z,77
2023-04-16T11:29:00.814Z,77
2023-04-16T11:30:04.032Z,77
2023-04-16T11:31:00.846Z,77
2023-04-16T11:32:00.926Z,77
2023-04-16T11:33:00.276Z,77
2023-04-16T11:34:01.054Z,77
2023-04-16T11:35:03.859Z,77
2023-04-16T11:36:01.208Z,77
2023-04-16T11:37:00.172Z,77
2023-04-16T11:38:00.273Z,77
2023-04-16T11:39:00.193Z,77
2023-04-16T11:40:03.357Z,77
2023-04-16T11:41:00.646Z,77
2023-04-16T11:42:07.953Z,77
2023-04-16T11:43:00.680Z,77
2023-04-16T11:44:00.765Z,77
2023-04-16T11:45:04.816Z,77
2023-04-16T11:46:33.084Z,77
2023-04-16T11:47:00.732Z,77
2023-04-16T11:48:01.851Z,77
2023-04-16T11:49:00.683Z,77
2023-04-16T11:50:06.866Z,76
2023-04-16T11:51:00.690Z,76
2023-04-16T11:52:08.463Z,76
2023-04-16T11:53:00.704Z,76
2023-04-16T11:54:03.055Z,76
2023-04-16T11:58:02.091Z,76
2023-04-16T11:59:00.729Z,76
2023-04-16T12:00:05.463Z,75
2023-04-16T12:01:00.781Z,75
2023-04-16T12:02:00.983Z,75
2023-04-16T12:03:01.101Z,75
2023-04-16T12:04:16.806Z,75
2023-04-16T12:05:03.396Z,75
2023-04-16T12:06:00.874Z,75
2023-04-16T12:07:00.799Z,75
2023-04-16T12:08:00.895Z,75
2023-04-16T12:09:00.805Z,75
2023-04-16T12:10:03.970Z,75
2023-04-16T12:11:00.812Z,75
2023-04-16T12:12:00.901Z,75
2023-04-16T12:13:00.819Z,75
2023-04-16T12:14:00.911Z,75
2023-04-16T12:15:03.694Z,75
2023-04-16T12:16:00.928Z,75
2023-04-16T12:17:00.924Z,75
2023-04-16T12:18:01.198Z,75
2023-04-16T12:19:00.845Z,75
2023-04-16T12:20:04.133Z,75
2023-04-16T12:21:00.867Z,75
2023-04-16T12:22:00.960Z,75
2023-04-16T12:23:00.856Z,74
2023-04-16T12:24:00.965Z,74
2023-04-16T12:25:03.423Z,74
2023-04-16T12:26:00.980Z,74
2023-04-16T12:27:00.905Z,74
2023-04-16T12:28:00.961Z,73
2023-04-16T12:29:00.890Z,73
2023-04-16T12:30:04.704Z,73
2023-04-16T12:31:00.932Z,73
2023-04-16T12:32:01.180Z,73
2023-04-16T12:33:00.997Z,72
2023-04-16T12:34:00.978Z,72
2023-04-16T12:35:03.464Z,72
2023-04-16T12:36:01.000Z,73
2023-04-16T12:37:00.924Z,73
2023-04-16T12:38:01.028Z,73
2023-04-16T12:39:00.954Z,73
2023-04-16T12:40:04.679Z,73
2023-04-16T12:41:01.002Z,73
2023-04-16T12:42:01.028Z,73
2023-04-16T12:43:00.971Z,73
2023-04-16T12:44:01.082Z,73
2023-04-16T12:45:03.713Z,73
2023-04-16T12:46:02.899Z,72
2023-04-16T12:47:00.979Z,72
2023-04-16T12:48:01.165Z,72
2023-04-16T12:49:01.014Z,72
2023-04-16T12:50:05.418Z,72
2023-04-16T12:51:01.006Z,71
2023-04-16T12:52:01.072Z,71
2023-04-16T12:53:01.006Z,71
2023-04-16T12:54:01.098Z,71
2023-04-16T12:55:03.553Z,71
2023-04-16T12:56:01.126Z,71
2023-04-16T12:57:01.054Z,71
2023-04-16T12:58:01.164Z,71
2023-04-16T12:59:01.037Z,71
2023-04-16T13:00:06.400Z,70
2023-04-16T13:01:01.043Z,70
2023-04-16T13:02:01.205Z,70
2023-04-16T13:03:01.198Z,70
2023-04-16T13:04:01.319Z,70
2023-04-16T13:05:03.706Z,70
2023-04-16T13:06:01.133Z,69
2023-04-16T13:07:01.079Z,69
2023-04-16T13:08:01.169Z,69
2023-04-16T13:09:01.118Z,69
2023-04-16T13:10:04.171Z,69
2023-04-16T13:11:01.088Z,69
2023-04-16T13:12:01.192Z,69
2023-04-16T13:13:01.101Z,69
2023-04-16T13:14:04.311Z,69
2023-04-16T13:15:05.363Z,69
2023-04-16T13:16:01.260Z,69
2023-04-16T13:17:01.147Z,69
2023-04-16T13:18:01.266Z,69
2023-04-16T13:19:01.135Z,69
2023-04-16T13:20:04.219Z,69
2023-04-16T13:21:01.154Z,69
2023-04-16T13:22:01.225Z,69
2023-04-16T13:23:01.156Z,69
2023-04-16T13:24:01.237Z,69
2023-04-16T13:25:03.749Z,69
2023-04-16T13:26:01.257Z,69
2023-04-16T13:27:00.167Z,69
2023-04-16T13:28:00.240Z,69
2023-04-16T13:29:00.175Z,68
2023-04-16T13:30:03.516Z,68
2023-04-16T13:31:00.243Z,68
2023-04-16T13:32:00.294Z,68
2023-04-16T13:33:00.309Z,68
2023-04-16T13:34:00.285Z,68
2023-04-16T13:35:03.716Z,68
2023-04-16T13:36:00.357Z,68
2023-04-16T13:37:00.227Z,68
2023-04-16T13:38:00.350Z,68
2023-04-16T13:39:00.229Z,68
2023-04-16T13:40:03.172Z,68
2023-04-16T13:41:00.239Z,68
2023-04-16T13:42:00.331Z,68
2023-04-16T13:43:00.251Z,67
2023-04-16T13:44:00.370Z,67
2023-04-16T13:45:02.958Z,67
2023-04-16T13:46:00.339Z,67
2023-04-16T13:47:00.468Z,67
2023-04-16T13:48:00.371Z,67
2023-04-16T13:49:00.265Z,67
2023-04-16T13:50:03.755Z,67
2023-04-16T13:51:00.299Z,67
2023-04-16T13:52:00.364Z,66
2023-04-16T13:53:00.288Z,66
2023-04-16T13:54:00.376Z,66
2023-04-16T13:55:03.035Z,66
2023-04-16T13:56:00.418Z,67
2023-04-16T13:57:00.299Z,67
2023-04-16T13:58:00.386Z,67
2023-04-16T13:59:00.321Z,67
2023-04-16T14:00:03.785Z,67
2023-04-16T14:01:00.389Z,67
2023-04-16T14:02:00.450Z,66
2023-04-16T14:03:00.560Z,66
2023-04-16T14:04:00.555Z,66
2023-04-16T14:05:02.866Z,66
2023-04-16T14:06:00.426Z,66
2023-04-16T14:07:00.347Z,66
2023-04-16T14:08:00.457Z,66
2023-04-16T14:09:00.387Z,66
2023-04-16T14:10:03.326Z,66
2023-04-16T14:11:00.363Z,66
2023-04-16T14:12:00.450Z,65
2023-04-16T14:13:00.365Z,65
2023-04-16T14:14:00.469Z,65
2023-04-16T14:15:03.091Z,66
2023-04-16T14:16:00.482Z,66
2023-04-16T14:17:00.387Z,66
2023-04-16T14:18:00.625Z,66
2023-04-16T14:19:00.403Z,65
2023-04-16T14:20:04.571Z,65